Time;durP1;ratioP1;P1;durP2;ratioP2;P2;SDS_P1;SDS_P2;PMS_P1;PMS_P2;Temp;Humidity;BMP_temperature;BMP_pressure;BME280_temperature;BME280_humidity;BME280_pressure;Samples;Min_cycle;Max_cycle;Signal;HPM_P1;HPM_P2
2021/08/19 00:01:42;;;;;;;6.35;2.80;;;19.60;79.50;;;;;;5025609;28;20030;-68
2021/08/19 00:04:08;;;;;;;7.35;2.67;;;19.60;79.50;;;;;;5027046;28;20036;-68
2021/08/19 00:06:33;;;;;;;5.07;2.28;;;19.60;79.40;;;;;;5045893;28;20513;-68
2021/08/19 00:08:59;;;;;;;4.55;2.60;;;19.50;79.50;;;;;;5045071;28;20382;-67
2021/08/19 00:11:25;;;;;;;5.10;2.63;;;19.50;79.40;;;;;;5044087;28;20101;-69
2021/08/19 00:13:50;;;;;;;5.63;2.78;;;19.50;79.40;;;;;;5022943;28;20546;-67
2021/08/19 00:16:16;;;;;;;7.00;2.75;;;19.50;79.40;;;;;;5026925;28;20032;-69
2021/08/19 00:18:41;;;;;;;4.47;2.50;;;19.50;79.40;;;;;;5022810;28;20029;-68
2021/08/19 00:21:08;;;;;;;6.70;2.80;;;19.50;79.40;;;;;;5037273;28;20498;-68
2021/08/19 00:23:35;;;;;;;6.25;3.20;;;19.60;79.50;;;;;;5026139;28;20021;-67
2021/08/19 00:26:01;;;;;;;5.03;2.45;;;19.50;79.40;;;;;;5034439;28;20033;-68
2021/08/19 00:28:27;;;;;;;5.03;2.67;;;19.50;79.40;;;;;;5024789;28;20026;-67
2021/08/19 00:30:52;;;;;;;4.88;2.72;;;19.60;79.50;;;;;;5040213;28;20037;-69
2021/08/19 00:33:18;;;;;;;4.80;2.38;;;19.50;79.40;;;;;;5045020;28;20036;-66
2021/08/19 00:35:43;;;;;;;5.30;2.33;;;19.50;79.40;;;;;;5026920;28;20116;-67
2021/08/19 00:38:09;;;;;;;5.15;2.75;;;19.60;79.50;;;;;;5025166;28;20049;-68
2021/08/19 00:40:35;;;;;;;5.45;2.60;;;19.50;79.40;;;;;;5041043;28;20029;-68
2021/08/19 00:43:04;;;;;;;5.95;2.90;;;19.60;79.50;;;;;;5043757;28;20025;-69
2021/08/19 00:45:31;;;;;;;4.95;2.75;;;19.50;79.40;;;;;;5029786;28;20505;-68
2021/08/19 00:47:57;;;;;;;5.13;2.45;;;19.50;79.50;;;;;;5043494;28;20588;-68
2021/08/19 00:50:23;;;;;;;4.25;2.40;;;19.50;79.50;;;;;;5030870;28;20041;-68
2021/08/19 00:52:49;;;;;;;7.35;3.22;;;19.50;79.50;;;;;;5023658;28;20470;-69
2021/08/19 00:55:16;;;;;;;5.07;2.55;;;19.50;79.50;;;;;;5034804;28;20091;-67
2021/08/19 00:57:44;;;;;;;5.28;2.60;;;19.50;79.50;;;;;;5025434;28;20053;-68
2021/08/19 01:00:11;;;;;;;4.68;2.60;;;19.50;79.50;;;;;;5033767;28;20799;-67
2021/08/19 01:02:41;;;;;;;5.65;2.80;;;19.50;79.50;;;;;;5044986;28;20032;-68
2021/08/19 01:05:07;;;;;;;5.93;2.80;;;19.50;79.60;;;;;;5034345;28;20044;-68
2021/08/19 01:07:33;;;;;;;6.05;2.75;;;19.50;79.50;;;;;;5025024;28;20033;-67
2021/08/19 01:10:03;;;;;;;6.50;2.63;;;19.50;79.50;;;;;;5045094;28;20104;-67
2021/08/19 01:12:29;;;;;;;6.18;2.80;;;19.50;79.50;;;;;;5042792;28;20029;-69
2021/08/19 01:14:55;;;;;;;5.55;2.92;;;19.50;79.60;;;;;;5025425;28;20044;-69
2021/08/19 01:17:20;;;;;;;5.93;2.78;;;19.50;79.60;;;;;;5027382;28;20046;-67
2021/08/19 01:19:47;;;;;;;7.47;2.85;;;19.50;79.70;;;;;;5029882;28;20021;-67
2021/08/19 01:22:15;;;;;;;6.30;2.67;;;19.50;79.60;;;;;;5026952;28;20137;-67
2021/08/19 01:24:41;;;;;;;5.65;2.53;;;19.50;79.60;;;;;;5027614;28;20022;-68
2021/08/19 01:27:14;;;;;;;6.75;3.33;;;19.50;79.70;;;;;;5029205;28;20079;-68
2021/08/19 01:29:42;;;;;;;5.95;2.75;;;19.50;79.70;;;;;;5034981;28;20025;-68
2021/08/19 01:32:09;;;;;;;5.35;2.47;;;19.50;79.70;;;;;;5047680;28;20033;-69
2021/08/19 01:34:34;;;;;;;5.88;2.50;;;19.50;79.80;;;;;;5041575;28;20057;-68
2021/08/19 01:37:00;;;;;;;5.50;2.67;;;19.40;79.70;;;;;;5027519;28;20114;-67
2021/08/19 01:39:26;;;;;;;4.55;2.35;;;19.40;79.80;;;;;;5032125;28;20040;-67
2021/08/19 01:41:52;;;;;;;5.18;2.42;;;19.50;79.80;;;;;;5046941;28;20025;-68
2021/08/19 01:44:18;;;;;;;4.65;2.33;;;19.50;79.80;;;;;;5043238;28;20029;-68
2021/08/19 01:46:49;;;;;;;5.90;2.63;;;19.40;79.80;;;;;;5037072;28;20029;-69
2021/08/19 01:49:15;;;;;;;5.28;2.58;;;19.40;79.80;;;;;;5045460;28;20029;-68
2021/08/19 01:51:40;;;;;;;5.30;2.70;;;19.40;79.80;;;;;;5028179;28;20407;-68
2021/08/19 01:54:06;;;;;;;6.65;2.92;;;19.40;80.40;;;;;;5027514;28;20116;-67
2021/08/19 01:56:32;;;;;;;5.65;2.67;;;19.40;79.90;;;;;;5038241;28;20514;-67
2021/08/19 01:58:57;;;;;;;5.68;2.55;;;19.40;79.90;;;;;;5047053;28;20025;-68
2021/08/19 02:01:26;;;;;;;4.70;2.55;;;19.40;79.90;;;;;;5026970;28;20110;-67
2021/08/19 02:03:52;;;;;;;5.72;2.75;;;19.40;79.90;;;;;;5027141;28;20057;-68
2021/08/19 02:06:20;;;;;;;5.80;2.42;;;19.40;79.90;;;;;;5028047;28;20057;-68
2021/08/19 02:08:45;;;;;;;5.60;2.42;;;19.40;79.90;;;;;;5026745;28;20026;-69
2021/08/19 02:11:12;;;;;;;5.80;2.85;;;19.40;79.90;;;;;;5040141;28;20029;-68
2021/08/19 02:13:38;;;;;;;5.20;2.63;;;19.40;79.90;;;;;;5047944;28;20044;-68
2021/08/19 02:16:03;;;;;;;5.53;2.33;;;19.40;79.90;;;;;;5035589;28;20029;-67
2021/08/19 02:18:29;;;;;;;4.45;2.30;;;19.40;79.90;;;;;;5046376;28;20032;-68
2021/08/19 02:20:55;;;;;;;5.53;2.30;;;19.40;79.90;;;;;;5033718;28;20487;-68
2021/08/19 02:23:20;;;;;;;5.55;2.60;;;19.40;79.90;;;;;;5039145;28;20063;-66
2021/08/19 02:25:46;;;;;;;4.28;2.17;;;19.40;79.90;;;;;;5045143;28;20481;-67
2021/08/19 02:28:11;;;;;;;3.95;2.03;;;19.40;79.90;;;;;;5046499;28;20044;-68
2021/08/19 02:30:37;;;;;;;4.35;2.20;;;19.40;79.90;;;;;;5042079;28;20025;-68
2021/08/19 02:33:03;;;;;;;5.72;2.50;;;19.40;79.90;;;;;;5027884;28;20033;-69
2021/08/19 02:35:30;;;;;;;4.90;2.30;;;19.40;79.90;;;;;;5036993;28;20064;-68
2021/08/19 02:37:57;;;;;;;6.72;2.50;;;19.40;79.90;;;;;;5040784;28;20052;-68
2021/08/19 02:40:23;;;;;;;5.20;2.50;;;19.40;79.90;;;;;;5037860;28;20028;-67
2021/08/19 02:42:49;;;;;;;5.57;2.53;;;19.40;79.90;;;;;;5045745;28;20025;-69
2021/08/19 02:45:15;;;;;;;5.82;2.42;;;19.40;80.00;;;;;;5045436;28;20094;-68
2021/08/19 02:47:40;;;;;;;4.18;2.10;;;19.40;80.00;;;;;;5029360;28;20130;-66
2021/08/19 02:50:06;;;;;;;4.78;2.33;;;19.40;80.00;;;;;;5041206;28;20040;-66
2021/08/19 02:52:32;;;;;;;4.82;2.47;;;19.40;80.00;;;;;;5046930;28;20093;-68
2021/08/19 02:54:57;;;;;;;4.90;2.30;;;19.40;80.00;;;;;;5045468;28;20041;-68
2021/08/19 02:57:23;;;;;;;5.30;2.60;;;19.40;80.00;;;;;;5028262;28;20494;-68
2021/08/19 02:59:48;;;;;;;4.90;2.30;;;19.40;80.00;;;;;;5036875;28;20040;-69
2021/08/19 03:02:14;;;;;;;4.93;2.47;;;19.40;80.00;;;;;;5046778;28;20162;-68
2021/08/19 03:04:40;;;;;;;5.18;2.53;;;19.40;80.00;;;;;;5037160;28;20045;-66
2021/08/19 03:07:07;;;;;;;6.15;2.65;;;19.40;80.00;;;;;;5027326;28;20584;-68
2021/08/19 03:09:33;;;;;;;5.32;2.95;;;19.40;80.00;;;;;;5033439;28;20078;-68
2021/08/19 03:11:58;;;;;;;5.07;2.40;;;19.40;80.00;;;;;;5045250;28;20590;-68
2021/08/19 03:14:24;;;;;;;6.65;2.63;;;19.40;80.00;;;;;;5045870;28;20589;-66
2021/08/19 03:16:49;;;;;;;4.78;2.35;;;19.40;80.10;;;;;;5037570;28;20021;-68
2021/08/19 03:19:15;;;;;;;4.57;2.40;;;19.40;80.00;;;;;;5026417;28;20025;-67
2021/08/19 03:21:40;;;;;;;3.88;2.25;;;19.40;80.10;;;;;;5025224;28;20624;-68
2021/08/19 03:24:06;;;;;;;5.00;2.63;;;19.40;80.10;;;;;;5029272;28;20021;-66
2021/08/19 03:26:32;;;;;;;4.65;2.50;;;19.40;80.20;;;;;;5035065;28;20692;-69
2021/08/19 03:28:58;;;;;;;5.18;2.50;;;19.40;80.10;;;;;;5028642;28;20040;-68
2021/08/19 03:31:25;;;;;;;5.00;2.33;;;19.40;80.10;;;;;;5046397;28;20502;-69
2021/08/19 03:33:51;;;;;;;5.20;2.50;;;19.40;80.10;;;;;;5045672;28;20021;-67
2021/08/19 03:36:16;;;;;;;6.30;2.75;;;19.40;80.10;;;;;;5026698;28;20044;-68
2021/08/19 03:38:43;;;;;;;4.70;2.47;;;19.40;80.10;;;;;;5025697;28;20018;-67
2021/08/19 03:41:09;;;;;;;5.40;2.42;;;19.40;80.20;;;;;;5025052;28;20025;-67
2021/08/19 03:43:36;;;;;;;5.18;2.50;;;19.40;80.70;;;;;;5026363;28;20032;-68
2021/08/19 03:46:01;;;;;;;6.03;2.70;;;19.40;80.20;;;;;;5044999;28;20029;-69
2021/08/19 03:48:27;;;;;;;4.55;2.65;;;19.30;80.10;;;;;;5035021;28;20025;-67
2021/08/19 03:50:52;;;;;;;6.85;2.88;;;19.40;80.20;;;;;;5026070;28;20087;-68
2021/08/19 03:53:18;;;;;;;5.20;2.40;;;19.40;80.30;;;;;;5032338;28;20604;-68
2021/08/19 03:55:45;;;;;;;5.32;2.50;;;19.30;80.30;;;;;;5040859;28;20127;-69
2021/08/19 03:58:10;;;;;;;6.85;2.42;;;19.30;80.30;;;;;;5024610;28;20402;-67
2021/08/19 04:00:36;;;;;;;6.07;2.40;;;19.30;80.30;;;;;;5028504;28;20024;-69
2021/08/19 04:03:01;;;;;;;7.82;2.78;;;19.30;80.40;;;;;;5039513;28;20529;-68
2021/08/19 04:05:27;;;;;;;7.47;2.58;;;19.30;80.40;;;;;;5036784;28;20103;-68
2021/08/19 04:07:52;;;;;;;5.22;2.42;;;19.30;80.50;;;;;;5034492;28;20044;-68
2021/08/19 04:10:18;;;;;;;6.05;2.50;;;19.30;80.60;;;;;;5042414;28;20569;-67
2021/08/19 04:12:44;;;;;;;4.32;2.20;;;19.40;80.70;;;;;;5026765;28;20036;-69
2021/08/19 04:15:11;;;;;;;4.53;2.13;;;19.30;80.70;;;;;;5039136;28;20064;-68
2021/08/19 04:17:38;;;;;;;5.55;2.50;;;19.30;80.70;;;;;;5028656;28;20033;-68
2021/08/19 04:20:04;;;;;;;4.35;2.30;;;19.30;80.80;;;;;;5038234;28;20017;-69
2021/08/19 04:22:30;;;;;;;5.00;2.65;;;19.30;80.90;;;;;;5040693;28;20028;-68
2021/08/19 04:24:55;;;;;;;6.25;2.33;;;19.30;81.00;;;;;;5031626;28;20042;-69
2021/08/19 04:27:21;;;;;;;6.25;2.55;;;19.30;81.10;;;;;;5033733;28;20624;-68
2021/08/19 04:29:46;;;;;;;4.47;2.00;;;19.30;81.10;;;;;;5027046;28;20029;-67
2021/08/19 04:32:12;;;;;;;4.57;2.53;;;19.30;81.20;;;;;;5037109;28;20593;-68
2021/08/19 04:34:38;;;;;;;6.60;2.70;;;19.30;81.30;;;;;;5049348;28;20034;-67
2021/08/19 04:37:03;;;;;;;4.43;2.20;;;19.30;81.30;;;;;;5029455;28;20401;-68
2021/08/19 04:39:29;;;;;;;4.20;2.30;;;19.30;81.50;;;;;;5033748;28;20044;-70
2021/08/19 04:41:54;;;;;;;4.32;2.30;;;19.30;81.40;;;;;;5036607;28;20032;-68
2021/08/19 04:44:20;;;;;;;6.28;2.40;;;19.30;81.40;;;;;;5038394;28;20028;-67
2021/08/19 04:46:45;;;;;;;5.57;2.40;;;19.30;81.70;;;;;;5030588;28;20029;-70
2021/08/19 04:49:11;;;;;;;5.38;2.65;;;19.30;81.80;;;;;;5031378;28;20033;-69
2021/08/19 04:51:37;;;;;;;6.28;2.58;;;19.30;82.00;;;;;;5028368;28;20407;-68
2021/08/19 04:54:04;;;;;;;5.90;2.45;;;19.30;82.00;;;;;;5040803;28;20033;-68
2021/08/19 04:56:36;;;;;;;4.45;2.30;;;19.30;82.10;;;;;;5031686;28;20029;-66
2021/08/19 04:59:02;;;;;;;5.10;2.45;;;19.30;82.20;;;;;;5032832;28;20482;-68
2021/08/19 05:01:28;;;;;;;4.90;2.47;;;19.30;82.20;;;;;;5038736;28;20040;-67
2021/08/19 05:03:54;;;;;;;5.78;2.63;;;19.30;82.30;;;;;;5032897;28;20025;-67
2021/08/19 05:06:21;;;;;;;4.93;2.53;;;19.30;82.30;;;;;;5042660;28;20112;-69
2021/08/19 05:08:46;;;;;;;7.93;2.85;;;19.30;82.40;;;;;;5029694;28;20025;-69
2021/08/19 05:11:13;;;;;;;8.48;2.95;;;19.30;82.60;;;;;;5029800;28;20037;-66
2021/08/19 05:13:39;;;;;;;7.95;3.28;;;19.30;82.90;;;;;;5024790;28;20077;-69
2021/08/19 05:16:05;;;;;;;12.02;3.10;;;19.30;83.00;;;;;;5032258;28;20494;-69
2021/08/19 05:18:30;;;;;;;11.13;3.83;;;19.40;83.90;;;;;;5027917;28;20037;-67
2021/08/19 05:20:56;;;;;;;9.38;3.67;;;19.40;83.60;;;;;;5019376;28;20056;-67
2021/08/19 05:23:21;;;;;;;11.00;4.40;;;19.40;84.20;;;;;;5027095;28;20029;-68
2021/08/19 05:25:47;;;;;;;11.25;4.60;;;19.40;84.20;;;;;;5028485;28;20068;-67
2021/08/19 05:28:12;;;;;;;11.82;4.22;;;19.40;84.40;;;;;;5034995;28;20123;-67
2021/08/19 05:30:38;;;;;;;10.20;4.00;;;19.40;84.70;;;;;;5029213;28;20041;-68
2021/08/19 05:33:03;;;;;;;12.60;4.90;;;19.50;84.40;;;;;;5030647;28;20036;-66
2021/08/19 05:35:29;;;;;;;13.02;4.55;;;19.50;84.40;;;;;;5023731;28;20397;-66
2021/08/19 05:37:54;;;;;;;9.02;4.28;;;19.50;84.40;;;;;;5024068;28;20025;-64
2021/08/19 05:40:20;;;;;;;11.88;4.35;;;19.50;84.20;;;;;;5024400;28;20029;-66
2021/08/19 05:42:45;;;;;;;8.15;4.10;;;19.50;84.40;;;;;;5023415;28;20887;-64
2021/08/19 05:45:11;;;;;;;12.55;4.38;;;19.40;84.40;;;;;;5021780;28;20033;-66
2021/08/19 05:47:37;;;;;;;8.85;3.92;;;19.40;84.50;;;;;;5023262;28;20029;-67
2021/08/19 05:50:09;;;;;;;8.95;4.00;;;19.40;84.50;;;;;;5021306;28;20526;-66
2021/08/19 05:52:35;;;;;;;10.02;3.90;;;19.40;84.40;;;;;;5029059;28;20037;-64
2021/08/19 05:55:01;;;;;;;9.88;5.30;;;19.40;84.10;;;;;;5032669;28;20128;-68
2021/08/19 05:57:26;;;;;;;12.27;5.03;;;19.40;84.30;;;;;;5034058;28;20482;-67
2021/08/19 05:59:52;;;;;;;12.52;5.47;;;19.40;84.30;;;;;;5028437;28;20037;-66
2021/08/19 06:02:18;;;;;;;12.40;5.75;;;19.50;84.40;;;;;;5038568;28;20049;-70
2021/08/19 06:04:43;;;;;;;10.18;5.50;;;19.50;84.60;;;;;;5029120;28;20037;-67
2021/08/19 06:07:09;;;;;;;10.85;6.15;;;19.50;84.60;;;;;;5030206;28;20025;-68
2021/08/19 06:09:34;;;;;;;10.65;5.65;;;19.50;84.30;;;;;;5035627;28;20037;-69
2021/08/19 06:12:00;;;;;;;11.82;5.72;;;19.50;84.00;;;;;;5041851;28;20039;-68
2021/08/19 06:14:26;;;;;;;9.85;6.05;;;19.60;83.60;;;;;;5027308;28;20032;-70
2021/08/19 06:16:52;;;;;;;9.40;5.90;;;19.60;83.20;;;;;;5045193;28;20025;-69
2021/08/19 06:19:17;;;;;;;11.57;6.57;;;19.60;83.20;;;;;;5042318;28;20134;-69
2021/08/19 06:21:43;;;;;;;10.65;6.35;;;19.60;83.20;;;;;;5035085;28;20052;-68
2021/08/19 06:24:08;;;;;;;10.57;6.20;;;19.60;83.00;;;;;;5034934;28;20037;-69
2021/08/19 06:26:34;;;;;;;10.48;6.13;;;19.60;82.90;;;;;;5028929;28;20576;-69
2021/08/19 06:28:59;;;;;;;12.05;6.32;;;19.60;83.10;;;;;;5035491;28;20155;-69
2021/08/19 06:31:25;;;;;;;11.13;6.38;;;19.60;82.90;;;;;;5027682;28;20033;-70
2021/08/19 06:33:50;;;;;;;10.85;6.05;;;19.70;82.90;;;;;;5035593;28;20068;-68
2021/08/19 06:36:16;;;;;;;20.38;8.13;;;19.60;82.60;;;;;;5039327;28;20375;-68
2021/08/19 06:38:42;;;;;;;10.15;6.38;;;19.70;82.80;;;;;;5042419;28;20033;-70
2021/08/19 06:41:07;;;;;;;10.85;6.10;;;19.70;82.60;;;;;;5045757;28;20021;-69
2021/08/19 06:43:33;;;;;;;11.52;6.88;;;19.70;82.60;;;;;;5037249;28;20029;-67
2021/08/19 06:45:58;;;;;;;10.85;6.30;;;19.70;82.50;;;;;;5045561;28;20353;-69
2021/08/19 06:48:24;;;;;;;10.98;7.03;;;19.70;82.50;;;;;;5032480;28;20033;-68
2021/08/19 06:50:49;;;;;;;13.98;6.57;;;19.70;82.60;;;;;;5036721;28;20046;-69
2021/08/19 06:53:15;;;;;;;10.85;6.70;;;19.70;82.30;;;;;;5036426;28;20033;-69
2021/08/19 06:55:40;;;;;;;10.40;6.45;;;19.70;82.80;;;;;;5040478;28;20112;-67
2021/08/19 06:58:07;;;;;;;13.50;7.10;;;19.70;82.80;;;;;;5036236;28;20025;-66
2021/08/19 07:00:32;;;;;;;13.38;7.55;;;19.70;82.40;;;;;;5034816;28;20021;-65
2021/08/19 07:02:58;;;;;;;10.57;6.85;;;19.70;82.50;;;;;;5030845;28;20398;-68
2021/08/19 07:05:24;;;;;;;11.18;6.80;;;19.70;82.40;;;;;;5032228;28;20036;-65
2021/08/19 07:07:50;;;;;;;11.25;6.78;;;19.70;82.50;;;;;;5035740;28;20033;-67
2021/08/19 07:10:16;;;;;;;11.25;6.85;;;19.70;82.50;;;;;;5031086;28;20470;-68
2021/08/19 07:12:41;;;;;;;13.50;7.07;;;19.70;82.60;;;;;;5026655;28;20159;-68
2021/08/19 07:15:08;;;;;;;11.50;7.75;;;19.70;82.90;;;;;;5027867;28;20753;-68
2021/08/19 07:17:34;;;;;;;11.63;7.30;;;19.70;83.00;;;;;;5040740;28;20055;-71
2021/08/19 07:20:00;;;;;;;11.45;7.32;;;19.70;83.10;;;;;;5036939;28;20025;-67
2021/08/19 07:22:26;;;;;;;11.45;8.00;;;19.70;83.40;;;;;;5029884;28;20024;-71
2021/08/19 07:24:51;;;;;;;12.00;7.88;;;19.70;83.70;;;;;;5045939;28;20383;-69
2021/08/19 07:27:17;;;;;;;13.63;8.10;;;19.80;83.80;;;;;;5043334;28;20414;-71
2021/08/19 07:29:43;;;;;;;13.45;8.23;;;19.80;83.60;;;;;;5034059;28;20277;-68
2021/08/19 07:32:09;;;;;;;12.48;7.68;;;19.90;83.40;;;;;;5046056;28;20525;-69
2021/08/19 07:34:34;;;;;;;13.60;7.82;;;19.90;83.30;;;;;;5034209;28;20502;-72
2021/08/19 07:37:01;;;;;;;17.65;9.32;;;19.90;83.10;;;;;;5031912;28;20040;-66
2021/08/19 07:39:26;;;;;;;12.55;7.72;;;19.80;83.10;;;;;;5025123;28;20029;-66
2021/08/19 07:41:52;;;;;;;12.23;8.13;;;19.80;82.70;;;;;;5024226;28;20077;-69
2021/08/19 07:44:17;;;;;;;12.45;7.82;;;19.90;82.30;;;;;;5026158;28;20127;-65
2021/08/19 07:46:43;;;;;;;11.38;7.90;;;19.90;82.00;;;;;;5026405;28;20036;-66
2021/08/19 07:49:08;;;;;;;11.55;7.78;;;19.90;81.60;;;;;;5025919;28;20037;-67
2021/08/19 07:51:34;;;;;;;11.43;6.65;;;19.90;81.70;;;;;;5025757;28;20430;-67
2021/08/19 07:54:01;;;;;;;11.02;7.38;;;19.90;81.60;;;;;;5024461;28;20108;-68
2021/08/19 07:56:27;;;;;;;11.00;7.10;;;19.90;81.40;;;;;;5025838;28;20021;-69
2021/08/19 07:58:53;;;;;;;12.00;6.80;;;19.90;81.50;;;;;;5025875;28;20032;-65
2021/08/19 08:01:19;;;;;;;10.65;6.68;;;19.90;81.40;;;;;;5025534;28;20458;-67
2021/08/19 08:03:44;;;;;;;11.18;6.72;;;19.90;81.30;;;;;;5025859;28;20029;-67
2021/08/19 08:06:11;;;;;;;10.40;6.60;;;19.90;81.20;;;;;;5025708;28;20041;-67
2021/08/19 08:08:37;;;;;;;11.48;6.80;;;19.90;81.20;;;;;;5026062;28;20395;-66
2021/08/19 08:11:02;;;;;;;11.15;5.95;;;19.90;81.20;;;;;;5023708;28;20033;-67
2021/08/19 08:13:28;;;;;;;9.27;6.07;;;19.90;81.00;;;;;;5025717;28;20060;-67
2021/08/19 08:15:54;;;;;;;11.75;7.18;;;20.00;80.90;;;;;;5025560;28;20392;-68
2021/08/19 08:18:19;;;;;;;11.18;7.03;;;19.90;80.90;;;;;;5024317;28;20402;-68
2021/08/19 08:20:45;;;;;;;9.15;6.20;;;19.90;81.00;;;;;;5025535;28;20049;-67
2021/08/19 08:23:11;;;;;;;9.85;6.28;;;19.90;81.10;;;;;;5024249;28;20030;-67
2021/08/19 08:25:37;;;;;;;9.90;6.32;;;19.90;81.00;;;;;;5023817;28;20052;-67
2021/08/19 08:28:05;;;;;;;8.85;5.85;;;19.90;81.00;;;;;;5025532;28;20487;-68
2021/08/19 08:30:34;;;;;;;11.02;6.85;;;19.90;81.00;;;;;;5025152;28;20487;-68
2021/08/19 08:33:00;;;;;;;9.30;5.90;;;19.90;81.10;;;;;;5025581;28;20438;-68
2021/08/19 08:35:26;;;;;;;9.55;5.85;;;19.90;81.20;;;;;;5024070;28;20022;-68
2021/08/19 08:37:51;;;;;;;10.73;6.22;;;19.90;81.20;;;;;;5025240;28;20022;-66
2021/08/19 08:40:18;;;;;;;8.35;5.75;;;19.90;81.20;;;;;;5026303;28;20025;-67
2021/08/19 08:42:46;;;;;;;10.27;5.72;;;19.90;81.30;;;;;;5034988;28;20025;-70
2021/08/19 08:45:13;;;;;;;9.48;5.85;;;19.90;81.30;;;;;;5030893;28;20025;-69
2021/08/19 08:47:39;;;;;;;9.70;5.50;;;19.90;81.60;;;;;;5033690;28;20029;-71
2021/08/19 08:50:06;;;;;;;11.38;5.80;;;19.90;81.80;;;;;;5034383;28;20407;-71
2021/08/19 08:52:34;;;;;;;9.32;5.72;;;19.90;82.00;;;;;;5035556;28;20029;-70
2021/08/19 08:55:04;;;;;;;9.05;5.13;;;19.90;81.70;;;;;;5036305;28;20090;-69
2021/08/19 08:57:33;;;;;;;9.90;5.20;;;19.90;81.60;;;;;;5030274;28;20045;-70
2021/08/19 08:59:58;;;;;;;9.73;4.82;;;20.00;81.70;;;;;;5037494;28;20025;-69
2021/08/19 09:02:25;;;;;;;8.73;4.90;;;20.00;81.60;;;;;;5037715;28;20504;-70
2021/08/19 09:05:18;;;;;;;11.65;5.45;;;20.00;81.60;;;;;;5032150;28;20083;-70
2021/08/19 09:08:04;;;;;;;9.82;4.75;;;20.10;81.50;;;;;;5034286;28;20025;-70
2021/08/19 09:10:31;;;;;;;10.50;4.70;;;20.10;81.10;;;;;;5037849;28;20386;-71
2021/08/19 09:13:08;;;;;;;10.73;4.47;;;20.10;80.80;;;;;;5028652;28;20449;-72
2021/08/19 09:15:34;;;;;;;7.28;4.47;;;20.20;80.90;;;;;;5033242;28;20024;-70
2021/08/19 09:18:01;;;;;;;9.93;4.45;;;20.20;80.30;;;;;;5040612;28;20037;-72
2021/08/19 09:20:34;;;;;;;9.70;4.45;;;20.20;80.30;;;;;;5024785;28;20029;-71
2021/08/19 09:23:05;;;;;;;8.30;4.43;;;20.20;80.30;;;;;;5033843;28;20029;-70
2021/08/19 09:25:45;;;;;;;8.07;4.00;;;20.20;80.30;;;;;;5037529;28;20037;-71
2021/08/19 09:28:10;;;;;;;7.78;4.05;;;20.20;80.20;;;;;;5028450;28;20045;-73
2021/08/19 09:30:37;;;;;;;8.15;4.47;;;20.30;80.00;;;;;;5045610;28;20029;-69
2021/08/19 09:33:04;;;;;;;9.25;4.10;;;20.20;80.10;;;;;;5041920;28;20068;-72
2021/08/19 09:35:30;;;;;;;7.78;3.97;;;20.20;80.00;;;;;;5034959;28;20393;-72
2021/08/19 09:37:56;;;;;;;7.63;4.10;;;20.20;80.10;;;;;;5037110;28;20022;-72
2021/08/19 09:40:22;;;;;;;7.07;4.13;;;20.20;80.10;;;;;;5035729;28;20084;-71
2021/08/19 09:42:47;;;;;;;7.47;4.30;;;20.30;80.20;;;;;;5037536;28;20025;-71
2021/08/19 09:45:18;;;;;;;7.43;4.07;;;20.30;80.00;;;;;;5045161;28;20076;-70
2021/08/19 09:47:44;;;;;;;6.03;3.65;;;20.30;80.10;;;;;;5036705;28;20025;-69
2021/08/19 09:50:24;;;;;;;6.60;3.53;;;20.30;80.00;;;;;;5030498;28;20060;-71
2021/08/19 09:52:51;;;;;;;8.55;3.50;;;20.30;79.90;;;;;;5036595;28;20417;-72
2021/08/19 09:55:27;;;;;;;8.10;3.60;;;20.30;79.90;;;;;;5029366;28;20108;-71
2021/08/19 09:57:54;;;;;;;6.13;3.63;;;20.30;79.70;;;;;;5039622;28;20014;-70
2021/08/19 10:00:28;;;;;;;7.55;3.47;;;20.30;79.90;;;;;;5028095;28;20055;-70
2021/08/19 10:02:55;;;;;;;7.40;3.75;;;20.30;79.90;;;;;;5036596;28;20368;-72
2021/08/19 10:05:21;;;;;;;7.13;3.80;;;20.30;80.00;;;;;;5030542;28;20479;-70
2021/08/19 10:07:47;;;;;;;5.60;3.10;;;20.30;79.90;;;;;;5037992;28;20083;-70
2021/08/19 10:10:12;;;;;;;6.78;3.72;;;20.30;79.90;;;;;;5030641;28;20030;-69
2021/08/19 10:12:41;;;;;;;5.90;3.60;;;20.30;79.90;;;;;;5038156;28;20029;-67
2021/08/19 10:15:07;;;;;;;7.50;3.70;;;20.30;79.70;;;;;;5045550;28;20869;-69
2021/08/19 10:17:35;;;;;;;5.85;3.30;;;20.30;79.90;;;;;;5035817;28;20021;-70
2021/08/19 10:20:05;;;;;;;7.22;4.05;;;20.30;79.80;;;;;;5030772;28;20136;-69
2021/08/19 10:22:34;;;;;;;7.93;3.72;;;20.30;79.40;;;;;;5033496;28;20021;-69
2021/08/19 10:25:01;;;;;;;8.65;3.58;;;20.30;79.50;;;;;;5041852;28;20055;-68
2021/08/19 10:27:28;;;;;;;5.80;3.38;;;20.30;79.60;;;;;;5027705;28;20061;-69
2021/08/19 10:30:04;;;;;;;6.28;3.42;;;20.30;79.40;;;;;;5036540;28;20060;-65
2021/08/19 10:32:37;;;;;;;6.90;3.90;;;20.30;80.00;;;;;;5035069;28;20496;-66
2021/08/19 10:35:09;;;;;;;6.63;3.38;;;20.30;80.20;;;;;;5029342;28;20100;-68
2021/08/19 10:37:49;;;;;;;8.88;3.95;;;20.40;80.20;;;;;;5029353;28;20408;-69
2021/08/19 10:40:24;;;;;;;6.10;3.55;;;20.40;80.20;;;;;;5029274;28;20029;-69
2021/08/19 10:43:28;;;;;;;7.20;4.40;;;20.40;80.30;;;;;;5029271;28;20116;-70
2021/08/19 10:46:07;;;;;;;11.93;8.07;;;20.40;80.20;;;;;;5038650;28;20052;-70
2021/08/19 10:48:43;;;;;;;17.05;9.60;;;20.40;80.30;;;;;;5034454;28;20030;-68
2021/08/19 10:51:11;;;;;;;37.47;33.30;;;20.50;80.20;;;;;;5038965;28;20246;-68
2021/08/19 10:53:36;;;;;;;384.17;292.48;;;20.50;80.10;;;;;;5037473;28;20027;-69
2021/08/19 10:56:02;;;;;;;88.63;69.50;;;20.50;80.20;;;;;;5036933;28;20028;-73
2021/08/19 10:58:40;;;;;;;401.73;333.00;;;20.60;78.80;;;;;;5036686;28;20021;-67
2021/08/19 11:01:18;;;;;;;276.73;245.80;;;20.60;80.10;;;;;;5033521;28;20136;-70
2021/08/19 11:03:47;;;;;;;138.90;119.57;;;20.60;81.00;;;;;;5032499;28;20083;-68
2021/08/19 11:06:18;;;;;;;89.72;65.80;;;20.60;80.40;;;;;;5029937;28;20030;-68
2021/08/19 11:08:47;;;;;;;87.40;72.60;;;20.60;79.60;;;;;;5033540;28;20355;-68
2021/08/19 11:11:33;;;;;;;81.82;68.40;;;20.60;79.80;;;;;;5035257;28;20040;-70
2021/08/19 11:14:12;;;;;;;80.13;68.32;;;20.70;79.90;;;;;;5038714;28;20021;-69
2021/08/19 11:16:40;;;;;;;89.22;73.18;;;20.70;79.80;;;;;;5027893;28;20061;-67
2021/08/19 11:19:15;;;;;;;85.72;72.47;;;20.60;79.00;;;;;;5036212;28;20025;-67
2021/08/19 11:21:43;;;;;;;82.60;68.70;;;20.60;79.30;;;;;;5031749;28;20122;-66
2021/08/19 11:24:09;;;;;;;85.90;70.68;;;20.60;79.40;;;;;;5043743;28;20025;-64
2021/08/19 11:26:35;;;;;;;82.25;68.63;;;20.60;78.70;;;;;;5045194;28;20082;-65
2021/08/19 11:29:01;;;;;;;82.68;69.93;;;20.50;78.40;;;;;;5044689;28;20046;-66
2021/08/19 11:31:26;;;;;;;86.20;70.53;;;20.60;78.30;;;;;;5044553;28;20017;-66
2021/08/19 11:34:04;;;;;;;87.22;71.68;;;20.60;78.30;;;;;;5044738;28;20121;-64
2021/08/19 11:36:30;;;;;;;83.85;70.13;;;20.50;78.30;;;;;;5033638;28;20069;-64
2021/08/19 11:38:58;;;;;;;84.30;68.45;;;20.50;78.70;;;;;;5030926;28;20061;-66
2021/08/19 11:41:24;;;;;;;83.00;69.47;;;20.50;78.40;;;;;;5044450;28;20034;-63
2021/08/19 11:43:56;;;;;;;80.82;69.50;;;20.50;78.40;;;;;;5042012;28;20029;-64
2021/08/19 11:46:27;;;;;;;81.70;69.53;;;20.60;78.80;;;;;;5037234;28;20676;-65
2021/08/19 11:48:58;;;;;;;81.67;67.60;;;20.60;78.20;;;;;;5026457;28;20759;-66
2021/08/19 11:51:44;;;;;;;73.00;64.78;;;20.60;78.00;;;;;;5049708;28;20624;-65
2021/08/19 11:54:14;;;;;;;81.85;67.53;;;20.60;77.90;;;;;;5060400;28;20040;-66
2021/08/19 11:56:43;;;;;;;76.82;64.88;;;20.60;77.90;;;;;;5060798;28;20147;-66
2021/08/19 11:59:14;;;;;;;80.05;65.35;;;20.60;77.90;;;;;;5043425;28;20025;-64
2021/08/19 12:01:51;;;;;;;76.72;63.50;;;20.60;77.90;;;;;;5030192;28;20795;-66
2021/08/19 12:04:29;;;;;;;77.85;61.38;;;20.60;77.90;;;;;;5035182;28;20116;-66
2021/08/19 12:06:59;;;;;;;72.70;60.22;;;20.60;78.50;;;;;;5031960;28;20366;-65
2021/08/19 12:09:25;;;;;;;71.10;56.90;;;20.60;79.40;;;;;;5037470;28;20071;-65
2021/08/19 12:11:52;;;;;;;73.70;61.50;;;20.60;79.60;;;;;;5035323;28;20040;-65
2021/08/19 12:14:24;;;;;;;68.25;56.53;;;20.60;79.10;;;;;;5035028;28;20032;-65
2021/08/19 12:16:52;;;;;;;66.43;54.40;;;20.60;79.70;;;;;;5039641;28;20482;-65
2021/08/19 12:19:20;;;;;;;70.78;56.97;;;20.60;79.40;;;;;;5030804;28;20032;-66
2021/08/19 12:21:51;;;;;;;77.65;60.45;;;20.60;79.60;;;;;;5031972;28;20041;-65
2021/08/19 12:24:19;;;;;;;71.97;57.75;;;20.60;79.00;;;;;;5040710;28;20036;-65
2021/08/19 12:27:11;;;;;;;71.10;58.97;;;20.70;78.80;;;;;;5039647;28;20033;-65
2021/08/19 12:29:59;;;;;;;67.43;56.33;;;20.70;78.40;;;;;;5033695;28;20025;-66
2021/08/19 12:32:36;;;;;;;66.95;54.97;;;20.60;79.00;;;;;;5029621;28;20032;-65
2021/08/19 12:35:22;;;;;;;69.85;57.25;;;20.70;79.00;;;;;;5049604;28;20119;-66
2021/08/19 12:37:56;;;;;;;68.57;54.92;;;20.70;80.60;;;;;;5043593;28;20075;-66
2021/08/19 12:40:34;;;;;;;62.55;52.70;;;20.60;83.40;;;;;;5027369;28;20564;-66
2021/08/19 12:43:11;;;;;;;66.97;53.65;;;20.60;80.20;;;;;;5025457;28;20116;-66